Time;durP1;ratioP1;P1;durP2;ratioP2;P2;SDS_P1;SDS_P2;PMS_P1;PMS_P2;Temp;Humidity;BMP_temperature;BMP_pressure;BME280_temperature;BME280_humidity;BME280_pressure;Samples;Min_cycle;Max_cycle;Signal;HPM_P1;HPM_P2
2021/05/19 00:01:02;;;;;;;20.40;5.03;;;13.70;99.90;;;;;;5030520;28;20056;-67
2021/05/19 00:04:07;;;;;;;17.02;3.90;;;13.70;99.90;;;;;;5030195;28;20041;-67
2021/05/19 00:07:11;;;;;;;17.23;4.65;;;13.70;99.90;;;;;;5030626;28;20044;-67
2021/05/19 00:10:17;;;;;;;16.92;4.55;;;13.60;99.90;;;;;;5029614;28;20044;-68
2021/05/19 00:13:21;;;;;;;25.48;7.38;;;13.50;99.90;;;;;;5030224;28;20103;-68
2021/05/19 00:16:26;;;;;;;19.23;5.03;;;13.50;99.90;;;;;;5030252;28;20049;-68
2021/05/19 00:19:30;;;;;;;20.95;5.53;;;13.30;99.90;;;;;;5017507;28;20044;-68
2021/05/19 00:22:35;;;;;;;17.40;5.07;;;13.20;99.90;;;;;;5030320;28;20045;-68
2021/05/19 00:25:40;;;;;;;20.42;4.80;;;13.20;99.90;;;;;;5029759;28;20044;-69
2021/05/19 00:28:49;;;;;;;20.02;5.25;;;13.20;99.90;;;;;;5030215;28;20048;-68
2021/05/19 00:31:54;;;;;;;26.08;5.43;;;13.00;99.90;;;;;;5029969;28;20053;-69
2021/05/19 00:34:59;;;;;;;16.30;5.10;;;12.90;99.90;;;;;;5029453;28;20053;-68
2021/05/19 00:38:03;;;;;;;17.65;5.18;;;12.80;99.90;;;;;;5029907;28;20116;-69
2021/05/19 00:41:08;;;;;;;20.00;5.03;;;12.70;99.90;;;;;;5029835;28;20052;-69
2021/05/19 00:44:17;;;;;;;17.17;5.68;;;12.60;99.90;;;;;;5031720;28;20060;-69
2021/05/19 00:47:31;;;;;;;23.88;5.47;;;12.60;99.90;;;;;;5017557;28;20503;-68
2021/05/19 00:50:37;;;;;;;15.90;4.50;;;12.50;99.90;;;;;;5017607;28;20365;-68
2021/05/19 00:53:41;;;;;;;22.08;6.45;;;12.40;99.90;;;;;;5028058;28;20045;-68
2021/05/19 00:56:45;;;;;;;19.67;6.05;;;12.30;99.90;;;;;;5009726;28;20044;-68
2021/05/19 00:59:51;;;;;;;24.63;4.80;;;12.30;99.90;;;;;;5009200;28;20045;-68
2021/05/19 01:03:00;;;;;;;20.48;5.15;;;12.20;99.90;;;;;;5009134;28;20037;-68
2021/05/19 01:06:09;;;;;;;18.40;5.07;;;12.20;99.90;;;;;;5013366;28;20095;-69
2021/05/19 01:09:36;;;;;;;27.52;5.63;;;12.10;99.90;;;;;;5010042;28;20045;-68
2021/05/19 01:12:41;;;;;;;18.98;6.03;;;12.10;99.90;;;;;;5021054;28;20052;-68
2021/05/19 01:15:46;;;;;;;23.27;7.03;;;12.00;99.90;;;;;;5017355;28;20052;-69
2021/05/19 01:18:50;;;;;;;21.15;5.00;;;12.00;99.90;;;;;;5016416;28;20044;-69
2021/05/19 01:21:56;;;;;;;19.40;4.63;;;12.00;99.90;;;;;;5012120;28;20045;-69
2021/05/19 01:25:00;;;;;;;25.40;5.68;;;12.00;99.90;;;;;;5007844;28;20041;-69
2021/05/19 01:28:07;;;;;;;23.55;5.95;;;12.00;99.90;;;;;;5008482;28;20041;-68
2021/05/19 01:31:13;;;;;;;20.70;5.28;;;12.00;99.90;;;;;;5008553;28;20045;-69
2021/05/19 01:34:19;;;;;;;21.25;5.38;;;12.10;99.90;;;;;;5011990;28;20057;-68
2021/05/19 01:37:23;;;;;;;23.05;5.25;;;12.20;99.90;;;;;;5016693;28;20044;-68
2021/05/19 01:40:32;;;;;;;20.05;5.53;;;12.20;99.90;;;;;;5032676;28;20041;-68
2021/05/19 01:43:39;;;;;;;21.20;6.45;;;12.30;99.90;;;;;;5018925;28;20037;-69
2021/05/19 01:47:05;;;;;;;23.58;5.47;;;12.30;99.90;;;;;;5032704;28;20052;-68
2021/05/19 01:50:13;;;;;;;15.57;5.82;;;12.30;99.90;;;;;;5011710;28;20053;-67
2021/05/19 01:53:19;;;;;;;19.48;6.30;;;12.40;99.90;;;;;;5011937;28;20511;-67
2021/05/19 01:56:23;;;;;;;19.15;4.90;;;12.40;99.90;;;;;;5012042;28;20041;-68
2021/05/19 01:59:31;;;;;;;27.25;6.57;;;12.50;99.90;;;;;;4999983;28;20048;-68
2021/05/19 02:02:37;;;;;;;23.70;5.35;;;12.50;99.90;;;;;;5012793;28;20397;-69
2021/05/19 02:05:42;;;;;;;23.55;4.38;;;12.60;99.90;;;;;;5012571;28;20048;-67
2021/05/19 02:08:46;;;;;;;19.25;4.70;;;12.60;99.90;;;;;;5011453;28;20048;-69
2021/05/19 02:11:54;;;;;;;14.70;5.18;;;12.60;99.90;;;;;;5018947;28;20056;-67
2021/05/19 02:14:58;;;;;;;22.48;5.28;;;12.60;99.90;;;;;;5019794;28;20068;-67
2021/05/19 02:18:04;;;;;;;16.65;4.57;;;12.60;99.90;;;;;;5020006;28;20064;-68
2021/05/19 02:21:10;;;;;;;18.25;4.93;;;12.60;99.90;;;;;;5031603;28;20064;-67
2021/05/19 02:24:21;;;;;;;17.20;4.47;;;12.60;99.90;;;;;;5019110;28;20495;-67
2021/05/19 02:27:27;;;;;;;17.90;5.07;;;12.60;99.90;;;;;;5019852;28;20056;-66
2021/05/19 02:30:35;;;;;;;15.35;4.60;;;12.60;99.90;;;;;;5019528;28;20499;-67
2021/05/19 02:33:40;;;;;;;16.75;4.07;;;12.50;99.90;;;;;;4999726;28;20393;-68
2021/05/19 02:36:45;;;;;;;15.05;5.50;;;12.40;99.90;;;;;;5011193;28;20052;-67
2021/05/19 02:39:50;;;;;;;21.30;5.85;;;12.40;99.90;;;;;;5010222;28;20048;-67
2021/05/19 02:42:55;;;;;;;20.02;4.85;;;12.40;99.90;;;;;;5002034;28;20049;-67
2021/05/19 02:46:03;;;;;;;16.73;5.30;;;12.50;99.90;;;;;;5024925;28;20053;-67
2021/05/19 02:49:08;;;;;;;23.75;5.10;;;12.50;99.90;;;;;;5011061;28;20061;-68
2021/05/19 02:52:12;;;;;;;23.67;4.63;;;12.50;99.90;;;;;;5022332;28;20044;-67
2021/05/19 02:55:16;;;;;;;16.05;4.43;;;12.60;99.90;;;;;;5030839;28;20048;-67
2021/05/19 02:58:20;;;;;;;14.98;4.15;;;12.60;99.90;;;;;;5031645;28;20052;-67
2021/05/19 03:15:01;;;;;;;20.48;4.55;;;12.60;99.90;;;;;;5019687;28;20053;-68
2021/05/19 03:18:05;;;;;;;13.18;4.97;;;12.60;99.90;;;;;;5026465;28;20032;-67
2021/05/19 03:21:09;;;;;;;17.02;4.13;;;12.60;99.90;;;;;;5024852;28;20033;-67
2021/05/19 03:24:13;;;;;;;17.63;4.40;;;12.70;99.90;;;;;;5010022;28;20069;-67
2021/05/19 03:27:18;;;;;;;13.60;3.70;;;12.70;99.90;;;;;;5010540;28;20049;-67
2021/05/19 03:30:22;;;;;;;11.07;3.60;;;12.70;99.90;;;;;;5021240;28;20044;-66
2021/05/19 03:33:26;;;;;;;10.25;3.03;;;12.80;99.90;;;;;;5030524;28;20044;-67
2021/05/19 03:36:30;;;;;;;8.98;2.70;;;12.80;99.90;;;;;;5030342;28;20044;-66
2021/05/19 03:39:35;;;;;;;11.90;3.03;;;12.90;99.90;;;;;;5028925;28;20063;-67
2021/05/19 03:42:39;;;;;;;10.32;2.92;;;12.90;99.90;;;;;;5030670;28;20048;-68
2021/05/19 03:45:43;;;;;;;11.93;2.72;;;12.80;99.90;;;;;;5030225;28;20060;-67
2021/05/19 03:48:50;;;;;;;10.15;2.85;;;12.90;99.90;;;;;;5020937;28;20037;-68
2021/05/19 03:51:56;;;;;;;12.38;2.88;;;12.90;99.90;;;;;;5029801;28;20507;-69
2021/05/19 03:55:01;;;;;;;8.60;2.70;;;12.90;99.90;;;;;;5028812;28;20116;-68
2021/05/19 03:58:06;;;;;;;9.57;2.97;;;12.80;99.90;;;;;;5018137;28;20048;-68
2021/05/19 04:01:10;;;;;;;14.38;3.10;;;12.90;99.90;;;;;;5029539;28;20513;-68
2021/05/19 04:04:14;;;;;;;9.18;2.65;;;12.80;99.90;;;;;;5029954;28;20335;-68
2021/05/19 04:07:18;;;;;;;9.43;2.92;;;12.80;99.90;;;;;;5030156;28;20052;-69
2021/05/19 04:10:44;;;;;;;;;;;;;;;;;;;;;
2021/05/19 04:13:58;;;;;;;9.90;2.97;;;12.90;99.90;;;;;;5018684;28;20057;-69
2021/05/19 04:17:02;;;;;;;11.35;2.83;;;12.90;99.90;;;;;;5013024;28;20041;-69
2021/05/19 04:20:06;;;;;;;13.43;3.47;;;12.90;99.90;;;;;;5009585;28;20041;-66
2021/05/19 04:23:10;;;;;;;10.00;2.97;;;12.70;99.90;;;;;;5023742;28;20112;-68
2021/05/19 04:26:14;;;;;;;16.75;3.60;;;12.70;99.90;;;;;;5029856;28;20045;-68
2021/05/19 04:29:18;;;;;;;13.52;3.65;;;12.70;99.90;;;;;;5029618;28;20040;-68
2021/05/19 04:32:22;;;;;;;8.52;3.47;;;12.70;99.90;;;;;;5019184;28;20060;-68
2021/05/19 04:35:27;;;;;;;9.98;2.97;;;12.70;99.90;;;;;;5029143;28;20515;-68
2021/05/19 04:38:31;;;;;;;12.05;3.55;;;12.80;99.90;;;;;;5016594;28;20053;-68
2021/05/19 04:41:36;;;;;;;11.18;3.72;;;12.80;99.90;;;;;;5029153;28;20064;-69
2021/05/19 04:44:39;;;;;;;13.77;3.95;;;12.90;99.90;;;;;;5029825;28;20057;-69
2021/05/19 04:47:44;;;;;;;8.52;3.80;;;12.90;99.90;;;;;;5012977;28;20040;-69
2021/05/19 04:50:48;;;;;;;11.05;3.58;;;12.90;99.90;;;;;;5008941;28;20408;-69
2021/05/19 04:53:53;;;;;;;11.13;3.95;;;12.90;99.90;;;;;;5011070;28;20053;-68
2021/05/19 04:56:57;;;;;;;12.32;4.18;;;12.90;99.90;;;;;;5028618;28;20498;-69
2021/05/19 05:00:00;;;;;;;13.18;4.50;;;13.00;99.90;;;;;;5010043;28;20041;-68
2021/05/19 05:03:05;;;;;;;13.95;4.00;;;13.10;99.90;;;;;;5012505;28;20044;-68
2021/05/19 05:06:09;;;;;;;16.48;4.10;;;13.20;99.90;;;;;;5014251;28;20045;-68
2021/05/19 05:09:22;;;;;;;14.45;3.50;;;13.40;99.90;;;;;;5027912;28;20499;-68
2021/05/19 05:12:27;;;;;;;13.65;3.35;;;13.50;99.90;;;;;;5013712;28;20060;-68
2021/05/19 05:15:31;;;;;;;15.73;3.65;;;13.60;99.90;;;;;;5013581;28;20045;-68
2021/05/19 05:18:38;;;;;;;14.38;3.78;;;13.70;99.90;;;;;;5012989;28;20081;-68
2021/05/19 05:21:43;;;;;;;17.80;4.25;;;13.70;99.90;;;;;;5021826;28;20037;-68
2021/05/19 05:24:48;;;;;;;15.93;3.58;;;13.80;99.90;;;;;;5019731;28;20041;-69
2021/05/19 05:27:54;;;;;;;15.10;3.55;;;14.00;99.90;;;;;;5026240;28;20057;-68
2021/05/19 05:30:58;;;;;;;21.35;4.45;;;14.10;99.90;;;;;;5012578;28;20049;-69
2021/05/19 05:34:03;;;;;;;13.25;3.90;;;14.10;99.90;;;;;;5025859;28;20427;-68
2021/05/19 05:37:08;;;;;;;15.20;2.63;;;14.30;99.90;;;;;;5026704;28;20052;-69
2021/05/19 05:40:13;;;;;;;12.35;2.88;;;14.30;99.90;;;;;;5031233;28;20045;-68
2021/05/19 05:43:18;;;;;;;19.73;3.45;;;14.40;99.90;;;;;;5031106;28;20504;-68
2021/05/19 05:46:22;;;;;;;14.63;3.17;;;14.60;99.90;;;;;;5028719;28;20052;-68
2021/05/19 05:49:26;;;;;;;18.20;3.00;;;14.80;99.90;;;;;;5019462;28;20045;-68
2021/05/19 05:52:31;;;;;;;16.98;3.22;;;15.00;99.90;;;;;;5013499;28;20064;-67
2021/05/19 05:55:35;;;;;;;14.15;3.47;;;15.00;99.90;;;;;;5030905;28;20056;-67
2021/05/19 05:58:39;;;;;;;12.25;3.70;;;15.20;99.90;;;;;;5029703;28;20121;-68
2021/05/19 06:01:44;;;;;;;13.57;3.58;;;15.20;99.90;;;;;;5011917;28;20057;-68
2021/05/19 06:04:48;;;;;;;15.98;4.07;;;15.20;99.90;;;;;;5013068;28;20056;-67
2021/05/19 06:07:52;;;;;;;12.65;3.20;;;15.40;99.90;;;;;;5020592;28;20516;-67
2021/05/19 06:10:56;;;;;;;14.65;3.10;;;15.70;99.90;;;;;;5028368;28;20052;-67
2021/05/19 06:14:00;;;;;;;13.02;2.58;;;16.00;99.90;;;;;;5018539;28;20044;-67
2021/05/19 06:17:05;;;;;;;13.68;3.50;;;15.90;99.90;;;;;;5030372;28;20040;-67
2021/05/19 06:20:09;;;;;;;13.10;2.78;;;15.60;99.90;;;;;;5029992;28;20048;-68
2021/05/19 06:23:14;;;;;;;15.75;3.15;;;15.20;99.90;;;;;;5027832;28;20048;-68
2021/05/19 06:26:18;;;;;;;13.13;3.42;;;14.80;99.90;;;;;;5021146;28;20046;-68
2021/05/19 06:29:22;;;;;;;15.60;3.28;;;15.10;99.90;;;;;;5017160;28;20052;-69
2021/05/19 06:32:26;;;;;;;8.13;2.70;;;15.40;99.90;;;;;;5016575;28;20048;-68
2021/05/19 06:35:31;;;;;;;15.00;3.40;;;15.60;99.90;;;;;;5016384;28;20041;-69
2021/05/19 06:38:35;;;;;;;25.83;4.07;;;15.00;99.90;;;;;;5029108;28;20144;-69
2021/05/19 06:41:42;;;;;;;21.27;3.40;;;15.30;99.90;;;;;;5007644;28;20044;-69
2021/05/19 06:44:47;;;;;;;18.77;3.60;;;15.50;99.90;;;;;;5018005;28;20396;-70
2021/05/19 06:47:52;;;;;;;11.52;2.97;;;15.50;99.90;;;;;;5015658;28;20049;-70
2021/05/19 06:50:56;;;;;;;21.02;3.92;;;15.20;99.90;;;;;;5025376;28;20052;-70
2021/05/19 06:54:01;;;;;;;20.80;4.25;;;14.90;99.90;;;;;;5024865;28;20056;-68
2021/05/19 07:11:21;;;;;;;6.97;2.20;;;14.30;99.90;;;;;;5019767;28;20040;-68
2021/05/19 07:14:25;;;;;;;6.82;2.25;;;14.50;99.90;;;;;;5008146;28;20535;-68
2021/05/19 07:17:29;;;;;;;6.20;1.45;;;14.70;99.90;;;;;;5016042;28;20037;-68
2021/05/19 07:20:33;;;;;;;5.20;1.70;;;14.70;99.90;;;;;;5016640;28;20400;-68
2021/05/19 07:23:38;;;;;;;6.07;1.73;;;14.70;99.90;;;;;;5018922;28;20044;-67
2021/05/19 07:26:45;;;;;;;3.67;1.25;;;14.70;99.90;;;;;;5017573;28;20044;-68
2021/05/19 07:29:51;;;;;;;2.97;1.30;;;14.70;99.90;;;;;;5027911;28;20619;-68
2021/05/19 07:32:56;;;;;;;5.13;1.75;;;14.70;99.90;;;;;;5030407;28;20052;-69
2021/05/19 07:36:00;;;;;;;7.25;2.10;;;14.30;99.90;;;;;;5016407;28;20052;-68
2021/05/19 07:39:09;;;;;;;3.28;1.40;;;14.50;99.90;;;;;;5009025;28;20044;-67
2021/05/19 07:42:17;;;;;;;4.63;1.40;;;14.70;99.90;;;;;;5012708;28;20499;-68
2021/05/19 07:45:21;;;;;;;6.35;2.08;;;14.90;99.90;;;;;;5017491;28;20106;-67
2021/05/19 07:48:25;;;;;;;3.47;1.10;;;15.10;99.90;;;;;;5020245;28;20044;-67
2021/05/19 07:51:29;;;;;;;3.22;1.00;;;15.30;99.90;;;;;;5030383;28;20052;-67
2021/05/19 07:54:35;;;;;;;5.43;1.30;;;15.80;99.90;;;;;;5016163;28;20048;-67
2021/05/19 08:04:00;;;;;;;2.25;1.15;;;17.40;99.90;;;;;;5018913;28;20048;-68
2021/05/19 08:07:06;;;;;;;4.50;1.13;;;18.20;99.90;;;;;;5015422;28;20049;-69
2021/05/19 08:10:11;;;;;;;3.28;0.90;;;19.00;99.90;;;;;;5008484;28;20053;-69
2021/05/19 08:13:18;;;;;;;5.20;1.13;;;19.30;99.90;;;;;;5010555;28;20056;-68
2021/05/19 08:16:22;;;;;;;5.07;0.95;;;19.30;99.90;;;;;;5010622;28;20044;-69
2021/05/19 08:19:27;;;;;;;4.25;1.38;;;19.00;99.90;;;;;;5010460;28;20053;-69
2021/05/19 08:22:31;;;;;;;2.88;1.00;;;18.80;99.90;;;;;;5010423;28;20053;-68
2021/05/19 08:25:35;;;;;;;3.92;1.10;;;18.80;99.90;;;;;;5026061;28;20044;-68
2021/05/19 08:28:39;;;;;;;4.45;1.10;;;18.90;99.90;;;;;;5013663;28;20060;-68
2021/05/19 08:31:43;;;;;;;3.25;1.00;;;18.80;99.90;;;;;;5021113;28;20081;-69
2021/05/19 08:34:47;;;;;;;11.05;1.95;;;19.20;99.90;;;;;;5025287;28;20052;-69
2021/05/19 08:37:52;;;;;;;3.67;1.20;;;19.60;99.90;;;;;;5017363;28;20045;-69
2021/05/19 08:41:03;;;;;;;5.43;1.95;;;19.60;99.90;;;;;;5017489;28;20049;-69
2021/05/19 08:44:07;;;;;;;9.38;1.45;;;19.70;99.90;;;;;;5016394;28;20057;-70
2021/05/19 08:47:11;;;;;;;3.72;1.02;;;22.20;99.90;;;;;;5032961;28;20044;-70
2021/05/19 08:50:16;;;;;;;5.70;1.10;;;25.30;99.90;;;;;;5034711;28;20048;-69
2021/05/19 08:53:21;;;;;;;4.32;1.00;;;27.70;99.90;;;;;;5034734;28;20342;-69
2021/05/19 08:56:25;;;;;;;2.65;0.70;;;28.90;99.90;;;;;;5034981;28;20068;-71
2021/05/19 08:59:29;;;;;;;6.63;1.15;;;30.20;99.60;;;;;;5036438;28;20044;-70
2021/05/19 09:02:33;;;;;;;2.22;0.70;;;30.60;96.00;;;;;;5036801;28;20052;-70
2021/05/19 09:05:40;;;;;;;3.22;0.43;;;31.80;94.60;;;;;;5036319;28;20045;-69
2021/05/19 09:08:44;;;;;;;1.13;0.38;;;31.20;92.70;;;;;;5015802;28;20292;-70
2021/05/19 09:12:06;;;;;;;0.88;0.45;;;32.20;92.30;;;;;;5018693;28;20045;-70
2021/05/19 09:15:13;;;;;;;1.35;0.30;;;32.00;90.80;;;;;;5004697;28;20118;-70
2021/05/19 09:18:17;;;;;;;1.48;0.70;;;31.70;90.70;;;;;;5024915;28;20048;-70
2021/05/19 09:21:39;;;;;;;4.68;0.30;;;31.10;89.90;;;;;;5019094;28;20037;-71
2021/05/19 09:24:43;;;;;;;1.42;0.40;;;31.90;88.50;;;;;;5022900;28;20052;-71
2021/05/19 09:27:59;;;;;;;0.52;0.15;;;32.80;85.90;;;;;;5012303;28;20048;-72
2021/05/19 09:31:18;;;;;;;0.77;0.10;;;33.40;82.80;;;;;;5023509;28;20057;-70
2021/05/19 09:34:28;;;;;;;3.25;0.60;;;34.10;80.70;;;;;;5015743;28;20105;-70
2021/05/19 09:37:34;;;;;;;9.10;0.38;;;34.30;81.20;;;;;;5016377;28;20049;-70
2021/05/19 09:40:38;;;;;;;0.60;0.20;;;33.70;80.20;;;;;;5015955;28;20049;-69
2021/05/19 09:43:42;;;;;;;1.20;0.40;;;33.40;79.20;;;;;;5016351;28;20044;-69
2021/05/19 09:46:47;;;;;;;1.95;0.57;;;34.00;78.50;;;;;;5015557;28;20037;-69
2021/05/19 09:49:56;;;;;;;0.95;0.13;;;35.30;78.10;;;;;;5034631;28;20037;-71
2021/05/19 09:53:10;;;;;;;0.47;0.10;;;35.00;75.90;;;;;;5032285;28;20044;-70
2021/05/19 09:56:14;;;;;;;1.55;0.20;;;35.20;76.50;;;;;;5020102;28;20041;-70
2021/05/19 09:59:20;;;;;;;1.95;0.30;;;35.60;74.80;;;;;;5032566;28;20048;-69
2021/05/19 10:02:30;;;;;;;0.22;0.10;;;35.20;74.00;;;;;;5032033;28;20044;-69
2021/05/19 10:05:41;;;;;;;0.25;0.08;;;34.70;70.10;;;;;;5032229;28;20044;-70
2021/05/19 10:08:48;;;;;;;0.10;0.10;;;34.10;69.90;;;;;;5031101;28;20057;-69
2021/05/19 10:11:52;;;;;;;3.05;0.20;;;33.50;70.70;;;;;;5032048;28;20052;-69
2021/05/19 10:15:03;;;;;;;0.73;0.20;;;34.90;76.50;;;;;;5032159;28;20060;-72
2021/05/19 10:18:14;;;;;;;2.08;0.30;;;36.00;68.50;;;;;;5016520;28;20045;-69
2021/05/19 10:21:19;;;;;;;;;;;34.90;66.60;;;;;;5012385;28;20216;-69
2021/05/19 10:25:18;;;;;;;0.95;0.10;;;34.10;69.00;;;;;;5011006;28;19910;-68
2021/05/19 10:28:46;;;;;;;0.85;0.10;;;34.40;66.20;;;;;;5011870;28;20393;-68
2021/05/19 10:31:51;;;;;;;1.40;0.40;;;34.90;65.60;;;;;;5016721;28;20132;-68
2021/05/19 10:34:57;;;;;;;0.88;0.30;;;35.20;65.30;;;;;;5030595;28;20128;-69
2021/05/19 10:38:28;;;;;;;1.67;0.30;;;36.10;68.00;;;;;;5025990;28;20048;-68
2021/05/19 10:41:44;;;;;;;0.95;0.20;;;36.00;64.90;;;;;;5030707;28;20041;-69
2021/05/19 10:45:12;;;;;;;0.20;0.20;;;36.80;67.00;;;;;;5018017;28;20052;-70
2021/05/19 10:48:32;;;;;;;0.50;0.20;;;36.80;64.70;;;;;;5030054;28;20404;-69
2021/05/19 10:51:44;;;;;;;1.52;0.28;;;37.00;63.30;;;;;;5019668;28;20060;-70
2021/05/19 10:58:57;;;;;;;3.05;0.20;;;36.20;61.20;;;;;;5028684;28;20064;-68
2021/05/19 11:02:00;;;;;;;1.73;0.13;;;36.10;62.30;;;;;;5016024;28;20052;-69
2021/05/19 11:05:12;;;;;;;1.08;0.20;;;35.80;63.90;;;;;;5031867;28;20060;-69
2021/05/19 11:08:20;;;;;;;0.32;0.20;;;35.70;61.00;;;;;;5027208;28;20032;-69
2021/05/19 11:11:32;;;;;;;1.70;0.30;;;35.90;61.90;;;;;;5029487;28;20052;-69
2021/05/19 11:14:48;;;;;;;1.50;0.25;;;36.00;63.80;;;;;;5030994;28;20335;-68
2021/05/19 11:17:55;;;;;;;0.10;0.00;;;35.70;61.90;;;;;;5025216;28;20036;-69
2021/05/19 11:21:03;;;;;;;0.52;0.20;;;34.90;61.50;;;;;;5030955;28;20373;-69
2021/05/19 11:24:15;;;;;;;0.95;0.20;;;35.10;62.90;;;;;;5029671;28;20061;-70
2021/05/19 11:27:22;;;;;;;1.73;0.20;;;35.40;61.00;;;;;;5030064;28;20401;-69
2021/05/19 11:30:29;;;;;;;0.98;0.20;;;35.00;61.20;;;;;;5010550;28;20049;-70
2021/05/19 11:33:52;;;;;;;4.00;0.40;;;35.50;61.60;;;;;;5015930;28;20428;-69
2021/05/19 11:36:58;;;;;;;0.50;0.10;;;34.90;61.00;;;;;;5010830;28;20057;-69
2021/05/19 11:40:04;;;;;;;2.35;0.30;;;35.30;60.50;;;;;;5009698;28;20065;-69
2021/05/19 11:43:23;;;;;;;0.75;0.20;;;35.20;58.90;;;;;;5009940;28;20048;-69
2021/05/19 11:46:28;;;;;;;5.47;0.20;;;34.50;60.60;;;;;;5010786;28;20344;-69
2021/05/19 11:49:33;;;;;;;2.03;0.30;;;33.50;60.30;;;;;;5026316;28;20053;-69
2021/05/19 11:52:39;;;;;;;0.57;0.22;;;32.30;61.10;;;;;;5030442;28;20045;-69
2021/05/19 11:55:45;;;;;;;3.28;0.30;;;32.50;64.40;;;;;;5030195;28;20044;-70
2021/05/19 11:58:50;;;;;;;0.88;0.20;;;33.50;61.10;;;;;;5029971;28;20068;-69
2021/05/19 12:02:10;;;;;;;0.57;0.10;;;33.10;60.40;;;;;;5029822;28;20120;-70
2021/05/19 12:05:14;;;;;;;2.58;0.30;;;33.30;61.80;;;;;;5029829;28;20384;-69
2021/05/19 12:08:21;;;;;;;2.00;0.22;;;33.40;60.60;;;;;;5029137;28;20052;-69
2021/05/19 12:11:27;;;;;;;1.75;0.20;;;33.40;61.40;;;;;;5030074;28;20044;-70
2021/05/19 12:14:32;;;;;;;0.80;0.20;;;33.00;62.50;;;;;;5030193;28;20052;-69
2021/05/19 12:17:37;;;;;;;0.80;0.28;;;33.20;59.90;;;;;;5029936;28;20048;-70
2021/05/19 12:20:40;;;;;;;2.30;0.30;;;32.70;60.60;;;;;;5029359;28;20044;-69
2021/05/19 12:23:44;;;;;;;0.30;0.20;;;32.30;60.40;;;;;;5029090;28;20475;-69
2021/05/19 12:26:53;;;;;;;0.85;0.15;;;30.80;61.00;;;;;;5029918;28;20036;-70
2021/05/19 12:30:00;;;;;;;2.97;0.20;;;30.90;62.80;;;;;;5030013;28;20523;-69
2021/05/19 12:33:09;;;;;;;4.00;0.40;;;30.60;63.70;;;;;;5029359;28;20060;-69
2021/05/19 12:36:31;;;;;;;0.85;0.40;;;30.90;64.60;;;;;;5029864;28;20424;-68
2021/05/19 12:39:37;;;;;;;1.63;0.30;;;31.50;62.30;;;;;;5028820;28;20060;-69
2021/05/19 12:42:46;;;;;;;4.25;0.20;;;31.90;59.60;;;;;;5029485;28;20032;-69
2021/05/19 12:45:51;;;;;;;1.02;0.20;;;31.10;63.00;;;;;;5017663;28;20053;-70
2021/05/19 12:49:05;;;;;;;1.75;0.22;;;27.90;64.00;;;;;;5028980;28;20044;-68
2021/05/19 12:52:18;;;;;;;0.65;0.22;;;25.10;67.70;;;;;;5029004;28;20048;-68
2021/05/19 12:55:22;;;;;;;1.92;0.35;;;23.20;71.60;;;;;;5029310;28;20052;-68
2021/05/19 12:58:29;;;;;;;2.28;0.45;;;22.20;69.20;;;;;;5029289;28;20049;-69
2021/05/19 13:01:43;;;;;;;1.20;0.20;;;23.10;74.40;;;;;;5029019;28;20143;-68
2021/05/19 13:04:48;;;;;;;2.65;0.20;;;25.20;71.90;;;;;;5017112;28;20507;-69
2021/05/19 13:07:53;;;;;;;2.22;0.32;;;24.00;72.00;;;;;;5029303;28;20530;-68
2021/05/19 13:10:57;;;;;;;0.73;0.35;;;23.40;71.50;;;;;;5018885;28;20044;-70
2021/05/19 13:14:03;;;;;;;1.80;0.20;;;23.50;70.10;;;;;;5009366;28;20061;-70
2021/05/19 13:17:59;;;;;;;0.35;0.20;;;23.10;69.90;;;;;;5010835;28;20044;-70
2021/05/19 13:21:05;;;;;;;1.08;0.40;;;24.30;70.70;;;;;;5029143;28;20064;-69
2021/05/19 13:24:11;;;;;;;2.53;0.30;;;22.40;69.50;;;;;;5028262;28;20045;-70
2021/05/19 13:27:26;;;;;;;0.85;0.20;;;23.10;70.40;;;;;;5029383;28;20049;-69
2021/05/19 13:30:30;;;;;;;0.73;0.25;;;24.50;70.70;;;;;;5032453;28;20032;-68
2021/05/19 13:36:51;;;;;;;2.70;0.30;;;24.40;72.20;;;;;;5032719;28;20045;-68
2021/05/19 13:39:57;;;;;;;2.08;0.35;;;23.80;72.70;;;;;;5031712;28;20040;-70
2021/05/19 13:43:01;;;;;;;3.10;0.32;;;23.10;69.80;;;;;;5019200;28;20056;-68
2021/05/19 13:46:06;;;;;;;2.25;0.40;;;23.40;70.60;;;;;;5032774;28;20099;-69
2021/05/19 13:49:23;;;;;;;1.17;0.43;;;23.90;70.80;;;;;;5032570;28;20053;-68
2021/05/19 13:52:28;;;;;;;2.38;0.50;;;24.50;69.30;;;;;;5032755;28;20041;-68
2021/05/19 13:55:32;;;;;;;0.65;0.30;;;23.50;71.80;;;;;;5032411;28;20385;-69
2021/05/19 13:58:43;;;;;;;0.80;0.30;;;24.10;70.10;;;;;;5032708;28;20047;-68
2021/05/19 14:01:49;;;;;;;2.53;0.40;;;23.20;74.50;;;;;;5032114;28;20041;-71
2021/05/19 14:04:56;;;;;;;1.88;0.38;;;23.40;70.00;;;;;;5020443;28;20048;-69
2021/05/19 14:08:01;;;;;;;2.95;0.50;;;22.50;69.70;;;;;;5031952;28;20044;-70
2021/05/19 14:11:11;;;;;;;0.73;0.40;;;21.90;72.40;;;;;;5032683;28;20384;-69
2021/05/19 14:14:31;;;;;;;3.60;0.50;;;22.00;74.10;;;;;;5032174;28;20048;-69
2021/05/19 14:17:48;;;;;;;1.70;0.63;;;21.80;77.10;;;;;;5032398;28;20053;-70
2021/05/19 14:27:42;;;;;;;4.90;0.50;;;21.50;75.10;;;;;;5032577;28;20049;-69
2021/05/19 14:30:46;;;;;;;1.17;0.40;;;21.90;75.10;;;;;;5020360;28;20048;-71
2021/05/19 14:33:50;;;;;;;3.20;0.60;;;22.20;75.20;;;;;;5012124;28;20057;-69
2021/05/19 14:59:54;;;;;;;1.30;0.50;;;22.00;78.70;;;;;;4999371;28;20057;-69
2021/05/19 15:02:59;;;;;;;1.85;0.50;;;22.10;77.80;;;;;;5011811;28;20061;-70
2021/05/19 15:06:03;;;;;;;2.47;0.40;;;22.10;76.60;;;;;;5011354;28;20040;-70
2021/05/19 15:09:11;;;;;;;1.83;0.60;;;21.90;73.80;;;;;;4998436;28;20049;-70
2021/05/19 15:12:16;;;;;;;2.20;0.60;;;21.50;73.10;;;;;;5010912;28;20060;-69
2021/05/19 15:15:20;;;;;;;0.93;0.30;;;21.10;74.30;;;;;;5011261;28;20041;-69
2021/05/19 15:18:24;;;;;;;2.92;0.50;;;20.70;73.00;;;;;;5022857;28;20072;-69
2021/05/19 15:21:28;;;;;;;3.88;0.40;;;20.30;73.50;;;;;;5030554;28;20404;-69
2021/05/19 15:24:32;;;;;;;2.13;0.45;;;19.90;74.40;;;;;;5030198;28;20408;-70
2021/05/19 15:27:36;;;;;;;2.60;0.50;;;19.50;75.20;;;;;;5031097;28;20064;-69
2021/05/19 15:30:41;;;;;;;3.00;0.40;;;19.40;73.80;;;;;;5018652;28;20068;-70
2021/05/19 15:33:46;;;;;;;0.45;0.40;;;19.30;73.20;;;;;;5030870;28;20053;-69
2021/05/19 15:36:50;;;;;;;3.00;0.40;;;19.30;73.60;;;;;;5031002;28;20045;-68
2021/05/19 15:39:54;;;;;;;1.75;0.40;;;18.90;76.40;;;;;;5030108;28;20053;-69
2021/05/19 15:42:58;;;;;;;1.80;0.30;;;18.50;77.50;;;;;;5030620;28;20057;-69
2021/05/19 15:46:03;;;;;;;5.38;0.55;;;18.20;78.30;;;;;;5030666;28;20049;-68
2021/05/19 15:49:09;;;;;;;1.02;0.40;;;18.00;78.20;;;;;;5017577;28;20066;-68
2021/05/19 15:52:14;;;;;;;1.40;0.50;;;17.90;79.20;;;;;;5010241;28;20508;-69
2021/05/19 15:55:18;;;;;;;1.42;0.47;;;17.90;80.40;;;;;;4997914;28;20037;-70
2021/05/19 15:58:23;;;;;;;2.42;0.40;;;17.80;81.30;;;;;;4998549;28;20053;-69
2021/05/19 16:01:29;;;;;;;4.25;0.55;;;17.70;80.90;;;;;;5010734;28;20049;-69
2021/05/19 16:04:40;;;;;;;2.10;0.65;;;17.70;80.00;;;;;;4998405;28;20053;-69
2021/05/19 16:07:45;;;;;;;4.63;0.50;;;17.60;80.90;;;;;;5010665;28;20041;-68
2021/05/19 16:10:50;;;;;;;2.33;0.65;;;17.40;79.80;;;;;;5009330;28;20041;-69
2021/05/19 16:13:54;;;;;;;3.85;0.63;;;17.20;78.80;;;;;;5010326;28;20045;-68
2021/05/19 16:17:00;;;;;;;0.95;0.47;;;17.20;80.10;;;;;;5009530;28;20056;-70
2021/05/19 16:20:06;;;;;;;0.98;0.47;;;17.20;83.10;;;;;;5029606;28;20056;-70
2021/05/19 16:23:10;;;;;;;2.65;0.68;;;17.10;83.80;;;;;;5029209;28;20048;-69
2021/05/19 16:26:19;;;;;;;1.90;0.88;;;16.90;85.00;;;;;;5029962;28;20385;-70
2021/05/19 16:34:22;;;;;;;0.73;0.50;;;16.40;89.50;;;;;;5007954;28;20045;-68
2021/05/19 16:37:26;;;;;;;2.03;0.50;;;15.80;91.30;;;;;;4997664;28;20049;-69
2021/05/19 16:40:30;;;;;;;1.98;0.63;;;15.60;92.50;;;;;;5008877;28;20405;-69
2021/05/19 16:43:35;;;;;;;1.20;0.45;;;15.50;93.30;;;;;;5009998;28;20061;-69
2021/05/19 16:46:41;;;;;;;3.95;0.70;;;15.10;93.60;;;;;;5009630;28;20504;-69
2021/05/19 16:49:45;;;;;;;1.77;0.50;;;15.00;95.40;;;;;;5009786;28;20045;-68
2021/05/19 16:52:49;;;;;;;4.05;0.50;;;14.80;94.80;;;;;;5009747;28;20057;-70
2021/05/19 16:55:54;;;;;;;3.33;0.75;;;14.70;95.20;;;;;;5009686;28;20057;-70
2021/05/19 16:58:58;;;;;;;3.08;0.60;;;14.70;95.20;;;;;;5009920;28;20053;-70
2021/05/19 17:05:09;;;;;;;4.35;0.90;;;14.90;94.90;;;;;;5013734;28;20041;-69
2021/05/19 17:08:13;;;;;;;3.25;0.80;;;15.00;95.70;;;;;;5012807;28;20808;-69
2021/05/19 17:11:17;;;;;;;2.65;0.57;;;15.00;95.20;;;;;;5026167;28;20053;-69
2021/05/19 17:14:21;;;;;;;1.08;0.40;;;15.00;95.70;;;;;;5033367;28;20104;-69
2021/05/19 17:17:25;;;;;;;3.17;0.50;;;14.90;96.00;;;;;;5033141;28;20044;-69
2021/05/19 17:20:30;;;;;;;1.40;0.52;;;14.90;97.00;;;;;;5033249;28;20053;-69
2021/05/19 17:23:34;;;;;;;0.93;0.45;;;14.60;98.40;;;;;;5031877;28;20126;-69
2021/05/19 17:26:38;;;;;;;1.30;0.57;;;14.50;99.90;;;;;;5033289;28;20431;-69
2021/05/19 17:29:42;;;;;;;0.73;0.65;;;14.20;99.90;;;;;;5033269;28;20052;-68